Terminal Aerodrome Forecast
Issued by NWS North Platte, NE

Home | Current Version | Previous Version | Graphics & Text | Print | Product List | Glossary On
Versions: 1 2 3 4 5 6 7 8 9 10 11 12 13 14 15 16 17 18
000
FTUS43 KLBF 030500
TAFVTN
TAF
KVTN 030521Z 0306/0406 20011KT P6SM SCT018 OVC026
      TEMPO 0306/0308 3SM -SHSN OVC018
     FM030800 35014G24KT 2SM -SN BR OVC008
      TEMPO 0309/0312 3/4SM -SN BR
     FM031500 34022G34KT P6SM OVC015
     FM032100 34018G29KT P6SM SCT015 BKN250=

USA.gov is the U.S. government's official web portal to all federal, state and local government web resources and services.